createdAt,value
2023-06-19T00:00:42.487Z,25.10
2023-06-19T00:01:45.111Z,25.20
2023-06-19T00:02:47.664Z,25.20
2023-06-19T00:03:50.070Z,25.20
2023-06-19T00:04:52.725Z,25.10
2023-06-19T00:05:55.054Z,25.10
2023-06-19T00:06:57.457Z,25.10
2023-06-19T00:08:00.129Z,25.10
2023-06-19T00:09:03.023Z,25.20
2023-06-19T00:10:07.326Z,25.20
2023-06-19T00:11:09.898Z,25.20
2023-06-19T00:12:12.577Z,25.10
2023-06-19T00:13:15.935Z,25.10
2023-06-19T00:14:18.571Z,25.10
2023-06-19T00:15:21.100Z,25.10
2023-06-19T00:16:26.055Z,25.10
2023-06-19T00:17:29.254Z,25.10
2023-06-19T00:18:31.772Z,25.10
2023-06-19T00:19:37.442Z,25.10
2023-06-19T00:20:40.709Z,25.10
2023-06-19T00:21:44.342Z,25.10
2023-06-19T00:22:52.569Z,25.00
2023-06-19T00:23:55.077Z,25.10
2023-06-19T00:24:57.756Z,25.10
2023-06-19T00:26:02.123Z,25.00
2023-06-19T00:27:04.852Z,25.00
2023-06-19T00:28:12.589Z,25.00
2023-06-19T00:29:15.060Z,25.00
2023-06-19T00:30:17.673Z,25.00
2023-06-19T00:31:21.196Z,24.90
2023-06-19T00:32:25.717Z,24.90
2023-06-19T00:33:28.120Z,24.90
2023-06-19T00:34:32.007Z,24.90
2023-06-19T00:35:35.217Z,24.90
2023-06-19T00:36:41.629Z,24.80
2023-06-19T00:37:46.551Z,24.90
2023-06-19T00:38:49.672Z,24.90
2023-06-19T00:39:52.042Z,24.90
2023-06-19T00:40:54.579Z,24.90
2023-06-19T00:41:57.725Z,24.90
2023-06-19T00:43:00.539Z,24.90
2023-06-19T00:44:02.949Z,24.90
2023-06-19T00:45:06.558Z,24.90
2023-06-19T00:46:11.745Z,24.90
2023-06-19T00:47:14.243Z,24.80
2023-06-19T00:48:16.885Z,24.80
2023-06-19T00:49:19.609Z,24.80
2023-06-19T00:50:25.918Z,24.80
2023-06-19T00:51:29.550Z,24.80
2023-06-19T00:52:31.978Z,24.80
2023-06-19T00:53:35.827Z,24.80
2023-06-19T00:54:38.498Z,24.80
2023-06-19T00:55:41.045Z,24.80
2023-06-19T00:56:45.498Z,24.90
2023-06-19T00:57:49.171Z,24.80
2023-06-19T00:58:53.726Z,24.80
2023-06-19T00:59:56.945Z,24.80
2023-06-19T01:01:08.011Z,24.80
2023-06-19T01:02:12.176Z,24.80
2023-06-19T01:03:18.674Z,24.80
2023-06-19T01:04:21.926Z,24.80
2023-06-19T01:05:24.382Z,24.90
2023-06-19T01:06:39.275Z,24.90
2023-06-19T01:08:01.675Z,24.80
2023-06-19T01:09:08.487Z,24.80
2023-06-19T01:10:17.531Z,24.90
2023-06-19T01:11:27.699Z,24.90
2023-06-19T01:12:39.174Z,24.90
2023-06-19T01:13:48.774Z,24.80
2023-06-19T01:15:04.074Z,24.80
2023-06-19T01:16:08.508Z,24.80
2023-06-19T01:17:12.492Z,24.80
2023-06-19T01:18:16.706Z,24.80
2023-06-19T01:19:21.788Z,24.80
2023-06-19T01:20:25.372Z,24.80
2023-06-19T01:21:28.498Z,24.90
2023-06-19T01:22:32.296Z,24.80
2023-06-19T01:23:37.415Z,24.90
2023-06-19T01:24:39.824Z,24.90
2023-06-19T01:25:43.691Z,24.90
2023-06-19T01:26:47.238Z,24.90
2023-06-19T01:27:49.752Z,24.80
2023-06-19T01:28:52.191Z,24.80
2023-06-19T01:29:55.964Z,24.80
2023-06-19T01:31:01.380Z,24.80
2023-06-19T01:32:11.323Z,24.90
2023-06-19T01:33:21.480Z,24.90
2023-06-19T01:34:32.886Z,24.90
2023-06-19T01:35:39.585Z,24.90
2023-06-19T01:36:42.831Z,24.90
2023-06-19T01:37:47.652Z,24.90
2023-06-19T01:38:51.476Z,24.80
2023-06-19T01:39:55.466Z,24.80
2023-06-19T01:41:00.340Z,24.80
2023-06-19T01:42:03.780Z,24.80
2023-06-19T01:43:08.230Z,24.80
2023-06-19T01:44:11.477Z,24.80
2023-06-19T01:45:14.157Z,24.80
2023-06-19T01:46:16.892Z,24.80
2023-06-19T01:47:21.315Z,24.70
2023-06-19T01:48:24.577Z,24.70
2023-06-19T01:49:27.316Z,24.70
2023-06-19T01:50:29.803Z,24.80
2023-06-19T01:51:32.313Z,24.80
2023-06-19T01:52:36.216Z,24.80
2023-06-19T01:53:38.670Z,24.80
2023-06-19T01:54:41.414Z,24.80
2023-06-19T01:55:44.475Z,24.80
2023-06-19T01:56:47.428Z,24.80
2023-06-19T01:57:50.541Z,24.80
2023-06-19T01:58:52.935Z,24.70
2023-06-19T01:59:55.371Z,24.80
2023-06-19T02:00:58.220Z,24.80
2023-06-19T02:02:00.719Z,24.90
2023-06-19T02:03:06.022Z,24.90
2023-06-19T02:04:08.739Z,24.80
2023-06-19T02:05:14.798Z,24.80
2023-06-19T02:06:17.497Z,24.80
2023-06-19T02:07:19.913Z,24.80
2023-06-19T02:08:23.853Z,24.80
2023-06-19T02:09:26.486Z,24.70
2023-06-19T02:10:30.074Z,24.60
2023-06-19T02:11:32.507Z,24.50
2023-06-19T02:12:34.975Z,24.60
2023-06-19T02:13:39.985Z,24.50
2023-06-19T02:14:42.856Z,24.60
2023-06-19T02:15:45.415Z,24.70
2023-06-19T02:16:47.924Z,24.70
2023-06-19T02:17:55.915Z,24.70
2023-06-19T02:18:58.533Z,24.60
2023-06-19T02:20:00.971Z,24.50
2023-06-19T02:21:07.188Z,24.60
2023-06-19T02:22:11.057Z,24.60
2023-06-19T02:23:13.636Z,24.50
2023-06-19T02:24:17.764Z,24.50
2023-06-19T02:25:20.704Z,24.40
2023-06-19T02:26:23.243Z,24.50
2023-06-19T02:27:26.430Z,24.50
2023-06-19T02:28:29.331Z,24.50
2023-06-19T02:29:34.912Z,24.50
2023-06-19T02:30:38.417Z,24.60
2023-06-19T02:31:41.538Z,24.60
2023-06-19T02:32:43.997Z,24.60
2023-06-19T02:33:46.459Z,24.50
2023-06-19T02:34:48.970Z,24.50
2023-06-19T02:35:51.556Z,24.60
2023-06-19T02:36:54.330Z,24.60
2023-06-19T02:37:57.524Z,24.60
2023-06-19T02:39:01.167Z,24.60
2023-06-19T02:40:06.137Z,24.60
2023-06-19T02:41:09.783Z,24.60
2023-06-19T02:42:12.145Z,24.60
2023-06-19T02:43:14.629Z,24.60
2023-06-19T02:44:18.360Z,24.60
2023-06-19T02:45:20.712Z,24.60
2023-06-19T02:46:24.130Z,24.60
2023-06-19T02:47:26.762Z,24.50
2023-06-19T02:48:29.354Z,24.60
2023-06-19T02:49:31.774Z,24.60
2023-06-19T02:50:34.390Z,24.60
2023-06-19T02:51:36.798Z,24.50
2023-06-19T02:52:39.175Z,24.50
2023-06-19T02:53:42.714Z,24.50
2023-06-19T02:54:46.337Z,24.50
2023-06-19T02:55:49.572Z,24.40
2023-06-19T02:56:52.400Z,24.40
2023-06-19T02:57:54.871Z,24.40
2023-06-19T02:58:57.762Z,24.40
2023-06-19T03:00:00.349Z,24.40
2023-06-19T03:01:03.082Z,24.40
2023-06-19T03:02:05.802Z,24.40
2023-06-19T03:03:08.591Z,24.40
2023-06-19T03:04:11.092Z,24.40
2023-06-19T03:05:16.056Z,24.30
2023-06-19T03:06:19.591Z,24.30
2023-06-19T03:07:22.005Z,24.30
2023-06-19T03:08:24.401Z,24.30
2023-06-19T03:09:28.008Z,24.40
2023-06-19T03:10:32.034Z,24.40
2023-06-19T03:11:34.525Z,24.40
2023-06-19T03:12:36.912Z,24.40
2023-06-19T03:13:52.303Z,24.40
2023-06-19T03:14:55.675Z,24.40
2023-06-19T03:15:59.472Z,24.50
2023-06-19T03:17:02.050Z,24.50
2023-06-19T03:18:08.457Z,24.40
2023-06-19T03:19:12.714Z,24.40
2023-06-19T03:20:15.215Z,24.40
2023-06-19T03:21:24.893Z,24.40
2023-06-19T03:22:28.236Z,24.40
2023-06-19T03:23:30.712Z,24.50
2023-06-19T03:24:33.337Z,24.50
2023-06-19T03:25:49.085Z,24.50
2023-06-19T03:26:51.671Z,24.50
2023-06-19T03:27:54.548Z,24.50
2023-06-19T03:28:57.135Z,24.50
2023-06-19T03:30:02.149Z,24.50
2023-06-19T03:31:14.091Z,24.50
2023-06-19T03:32:17.943Z,24.50
2023-06-19T03:33:21.300Z,24.50
2023-06-19T03:34:23.730Z,24.50
2023-06-19T03:35:27.781Z,24.50
2023-06-19T03:36:30.342Z,24.40
2023-06-19T03:37:40.674Z,24.50
2023-06-19T03:38:43.377Z,24.40
2023-06-19T03:39:47.898Z,24.40
2023-06-19T03:40:50.936Z,24.50
2023-06-19T03:41:53.421Z,24.40
2023-06-19T03:42:55.956Z,24.40
2023-06-19T03:43:59.735Z,24.50
2023-06-19T03:45:02.246Z,24.40
2023-06-19T03:46:05.399Z,24.40
2023-06-19T03:47:08.226Z,24.40
2023-06-19T03:48:10.668Z,24.40
2023-06-19T03:49:13.113Z,24.40
2023-06-19T03:50:21.547Z,24.50
2023-06-19T03:51:25.428Z,24.40
2023-06-19T03:52:28.266Z,24.40
2023-06-19T03:53:31.212Z,24.40
2023-06-19T03:54:33.603Z,24.40
2023-06-19T03:55:36.603Z,24.40
2023-06-19T03:56:39.578Z,24.40
2023-06-19T03:57:41.943Z,24.40
2023-06-19T03:58:44.527Z,24.40
2023-06-19T03:59:48.482Z,24.40
2023-06-19T04:00:52.450Z,24.40
2023-06-19T04:01:55.412Z,24.40
2023-06-19T04:02:58.425Z,24.40
2023-06-19T04:04:01.258Z,24.40
2023-06-19T04:05:04.144Z,24.40
2023-06-19T04:06:06.590Z,24.40
2023-06-19T04:07:09.070Z,24.40
2023-06-19T04:11:19.137Z,24.40
2023-06-19T04:12:21.954Z,24.50
2023-06-19T04:13:27.056Z,24.50
2023-06-19T04:14:30.216Z,24.60
2023-06-19T04:15:33.414Z,24.60
2023-06-19T04:16:36.194Z,24.60
2023-06-19T04:17:38.954Z,24.60
2023-06-19T04:18:41.408Z,24.60
2023-06-19T04:19:43.890Z,24.70
2023-06-19T04:20:47.214Z,24.70
2023-06-19T04:21:49.710Z,24.70
2023-06-19T04:22:52.086Z,24.70
2023-06-19T04:23:55.029Z,24.60
2023-06-19T04:24:57.577Z,24.70
2023-06-19T04:26:00.337Z,24.60
2023-06-19T04:27:03.135Z,24.60
2023-06-19T04:28:06.186Z,24.50
2023-06-19T04:29:08.941Z,24.40
2023-06-19T04:30:12.255Z,24.50
2023-06-19T04:31:19.531Z,24.50
2023-06-19T04:32:22.834Z,24.40
2023-06-19T04:33:26.213Z,24.50
2023-06-19T04:34:28.871Z,24.50
2023-06-19T04:35:31.242Z,24.60
2023-06-19T04:36:33.988Z,24.60
2023-06-19T04:37:37.474Z,24.60
2023-06-19T04:38:40.195Z,24.60
2023-06-19T04:39:43.239Z,24.60
2023-06-19T04:40:46.273Z,24.70
2023-06-19T04:41:48.930Z,24.70
2023-06-19T04:42:54.952Z,24.70
2023-06-19T04:43:57.741Z,24.70
2023-06-19T04:45:00.906Z,24.70
2023-06-19T04:46:05.118Z,24.60
2023-06-19T04:47:07.740Z,24.60
2023-06-19T04:48:10.741Z,24.60
2023-06-19T04:49:13.988Z,24.60
2023-06-19T04:50:17.418Z,24.60
2023-06-19T04:51:22.808Z,24.60
2023-06-19T04:52:25.242Z,24.60
2023-06-19T04:53:28.375Z,24.60
2023-06-19T04:54:33.696Z,24.60
2023-06-19T04:55:36.515Z,24.70
2023-06-19T04:56:39.744Z,24.70
2023-06-19T04:57:42.265Z,24.70
2023-06-19T04:58:48.228Z,24.70
2023-06-19T04:59:50.796Z,24.70
2023-06-19T05:00:53.535Z,24.70
2023-06-19T05:01:56.177Z,24.70
2023-06-19T05:03:01.485Z,24.70
2023-06-19T05:04:04.571Z,24.60
2023-06-19T05:05:08.003Z,24.70
2023-06-19T05:06:10.466Z,24.70
2023-06-19T05:07:13.846Z,24.70
2023-06-19T05:08:16.549Z,24.70
2023-06-19T05:09:19.230Z,24.80
2023-06-19T05:10:22.288Z,24.80
2023-06-19T05:11:25.246Z,24.80
2023-06-19T05:12:27.795Z,24.70
2023-06-19T05:13:30.197Z,24.70
2023-06-19T05:14:32.621Z,24.60
2023-06-19T05:15:35.251Z,24.60
2023-06-19T05:16:38.540Z,24.50
2023-06-19T05:17:41.077Z,24.60
2023-06-19T05:18:45.055Z,24.70
2023-06-19T05:19:47.536Z,24.70
2023-06-19T05:20:50.163Z,24.80
2023-06-19T05:21:52.610Z,24.80
2023-06-19T05:22:55.275Z,24.90
2023-06-19T05:23:57.777Z,24.90
2023-06-19T05:25:00.275Z,24.90
2023-06-19T05:26:02.705Z,24.90
2023-06-19T05:27:05.409Z,25.00
2023-06-19T05:28:07.942Z,25.00
2023-06-19T05:29:10.304Z,25.00
2023-06-19T05:30:13.625Z,24.90
2023-06-19T05:31:16.379Z,24.90
2023-06-19T05:32:19.169Z,24.80
2023-06-19T05:33:21.769Z,24.70
2023-06-19T05:34:24.180Z,24.70
2023-06-19T05:35:26.756Z,24.80
2023-06-19T05:36:29.108Z,24.90
2023-06-19T05:37:31.577Z,24.90
2023-06-19T05:38:34.189Z,24.90
2023-06-19T05:39:36.559Z,24.90
2023-06-19T05:40:38.986Z,24.90
2023-06-19T05:41:42.824Z,24.90
2023-06-19T05:42:45.533Z,24.80
2023-06-19T05:43:51.260Z,24.70
2023-06-19T05:44:53.854Z,24.70
2023-06-19T05:45:57.385Z,24.80
2023-06-19T05:46:59.994Z,24.80
2023-06-19T05:48:02.574Z,24.80
2023-06-19T05:49:05.077Z,24.80
2023-06-19T05:50:07.917Z,24.80
2023-06-19T05:51:10.297Z,24.80
2023-06-19T05:52:12.986Z,24.80
2023-06-19T05:53:16.245Z,24.80
2023-06-19T05:54:19.202Z,24.80
2023-06-19T05:55:21.766Z,24.90
2023-06-19T05:56:24.567Z,24.90
2023-06-19T05:57:27.003Z,24.90
2023-06-19T05:58:30.059Z,24.80
2023-06-19T05:59:32.509Z,24.80
2023-06-19T06:00:35.051Z,24.80
2023-06-19T06:01:38.088Z,24.80
2023-06-19T06:02:40.934Z,24.80
2023-06-19T06:03:43.346Z,24.70
2023-06-19T06:04:45.719Z,24.70
2023-06-19T06:05:49.963Z,24.80
2023-06-19T06:06:52.390Z,24.90
2023-06-19T06:07:55.758Z,24.90
2023-06-19T06:08:58.188Z,24.90
2023-06-19T06:10:00.591Z,24.90
2023-06-19T06:11:03.363Z,24.80
2023-06-19T06:12:06.514Z,24.80
2023-06-19T06:13:09.012Z,24.80
2023-06-19T06:14:13.438Z,24.80
2023-06-19T06:15:16.631Z,24.80
2023-06-19T06:16:19.218Z,24.80
2023-06-19T06:17:21.885Z,24.80
2023-06-19T06:18:24.374Z,24.70
2023-06-19T06:19:27.188Z,24.70
2023-06-19T06:20:29.691Z,24.70
2023-06-19T06:21:32.163Z,24.70
2023-06-19T06:22:34.555Z,24.80
2023-06-19T06:23:36.954Z,24.80
2023-06-19T06:24:40.203Z,24.80
2023-06-19T06:25:42.782Z,24.80
2023-06-19T06:26:46.164Z,24.90
2023-06-19T06:27:49.333Z,24.90
2023-06-19T06:28:51.877Z,25.00
2023-06-19T06:29:54.291Z,25.00
2023-06-19T06:30:57.014Z,25.00
2023-06-19T06:32:07.165Z,25.00
2023-06-19T06:33:09.631Z,25.00
2023-06-19T06:34:12.128Z,25.00
2023-06-19T06:35:15.070Z,24.90
2023-06-19T06:36:29.607Z,24.90
2023-06-19T06:37:38.977Z,24.90
2023-06-19T06:38:41.965Z,24.90
2023-06-19T06:39:44.282Z,24.90
2023-06-19T06:40:47.778Z,24.70
2023-06-19T06:41:51.227Z,24.70
2023-06-19T06:42:54.959Z,24.70
2023-06-19T06:43:58.002Z,24.70
2023-06-19T06:45:00.920Z,24.60
2023-06-19T06:46:04.252Z,24.60
2023-06-19T06:47:06.969Z,24.60
2023-06-19T06:48:09.549Z,24.70
2023-06-19T06:49:13.343Z,24.70
2023-06-19T06:50:15.828Z,24.80
2023-06-19T06:51:18.203Z,24.80
2023-06-19T06:52:20.746Z,24.70
2023-06-19T06:53:24.067Z,24.80
2023-06-19T06:54:26.530Z,24.80
2023-06-19T06:55:30.003Z,24.80
2023-06-19T06:56:32.424Z,24.80
2023-06-19T06:57:34.975Z,24.90
2023-06-19T06:58:39.474Z,24.90
2023-06-19T06:59:41.980Z,24.90
2023-06-19T07:00:44.491Z,24.80
2023-06-19T07:01:46.858Z,24.80
2023-06-19T07:02:51.469Z,24.80
2023-06-19T07:03:55.570Z,24.80
2023-06-19T07:04:58.264Z,24.90
2023-06-19T07:06:00.910Z,24.90
2023-06-19T07:07:05.469Z,24.90
2023-06-19T07:08:08.187Z,24.90
2023-06-19T07:09:10.817Z,24.80
2023-06-19T07:10:14.029Z,24.80
2023-06-19T07:11:16.591Z,24.80
2023-06-19T07:12:19.013Z,24.90
2023-06-19T07:13:21.645Z,24.90
2023-06-19T07:14:24.121Z,24.90
2023-06-19T07:15:26.987Z,24.90
2023-06-19T07:16:30.118Z,24.90
2023-06-19T07:17:32.645Z,25.00
2023-06-19T07:18:38.592Z,24.90
2023-06-19T07:19:41.000Z,24.90
2023-06-19T07:20:43.563Z,24.90
2023-06-19T07:21:46.100Z,25.00
2023-06-19T07:22:48.924Z,25.10
2023-06-19T07:23:51.540Z,25.10
2023-06-19T07:24:53.929Z,25.10
2023-06-19T07:25:56.362Z,25.10
2023-06-19T07:26:58.888Z,25.10
2023-06-19T07:28:02.309Z,25.10
2023-06-19T07:29:04.737Z,25.10
2023-06-19T07:30:08.279Z,25.10
2023-06-19T07:31:10.832Z,25.10
2023-06-19T07:32:13.261Z,25.10
2023-06-19T07:33:18.799Z,25.10
2023-06-19T07:34:21.320Z,25.10
2023-06-19T07:35:23.809Z,25.10
2023-06-19T07:36:26.267Z,25.10
2023-06-19T07:37:28.787Z,25.10
2023-06-19T07:38:31.332Z,25.10
2023-06-19T07:39:33.920Z,25.10
2023-06-19T07:40:36.316Z,25.10
2023-06-19T07:41:39.132Z,25.20
2023-06-19T07:42:44.138Z,25.20
2023-06-19T07:43:47.872Z,25.20
2023-06-19T07:44:50.395Z,25.20
2023-06-19T07:45:52.908Z,25.20
2023-06-19T07:46:55.403Z,25.20
2023-06-19T07:47:59.274Z,25.20
2023-06-19T07:49:01.856Z,25.20
2023-06-19T07:50:04.901Z,25.20
2023-06-19T07:51:07.783Z,25.20
2023-06-19T07:52:10.944Z,25.20
2023-06-19T07:53:13.367Z,25.20
2023-06-19T07:54:16.126Z,25.20
2023-06-19T07:55:18.650Z,25.20
2023-06-19T07:56:21.114Z,25.20
2023-06-19T07:57:25.226Z,25.20
2023-06-19T07:58:28.174Z,25.20
2023-06-19T07:59:30.619Z,25.20
2023-06-19T08:00:33.013Z,25.20
2023-06-19T08:01:35.379Z,25.20
2023-06-19T08:02:38.520Z,25.20
2023-06-19T08:03:41.184Z,25.20
2023-06-19T08:04:43.913Z,25.20
2023-06-19T08:05:48.664Z,25.20
2023-06-19T08:06:51.216Z,25.20
2023-06-19T08:07:53.907Z,25.20
2023-06-19T08:08:56.846Z,25.20
2023-06-19T08:10:11.646Z,25.20
2023-06-19T08:11:16.396Z,25.20
2023-06-19T08:12:18.917Z,25.20
2023-06-19T08:13:21.764Z,25.20
2023-06-19T08:14:24.425Z,25.20
2023-06-19T08:15:26.855Z,25.20
2023-06-19T08:16:29.413Z,25.20
2023-06-19T08:17:31.855Z,25.20
2023-06-19T08:18:34.828Z,25.20
2023-06-19T08:19:37.305Z,25.20
2023-06-19T08:20:39.694Z,25.20
2023-06-19T08:21:42.045Z,25.20
2023-06-19T08:22:44.508Z,25.30
2023-06-19T08:23:48.054Z,25.20
2023-06-19T08:24:51.036Z,25.30
2023-06-19T08:25:53.761Z,25.30
2023-06-19T08:26:56.217Z,25.30
2023-06-19T08:27:58.600Z,25.30
2023-06-19T08:29:01.447Z,25.30
2023-06-19T08:30:04.320Z,25.30
2023-06-19T08:31:08.090Z,25.30
2023-06-19T08:32:10.582Z,25.30
2023-06-19T08:33:14.509Z,25.30
2023-06-19T08:34:17.825Z,25.30
2023-06-19T08:35:21.102Z,25.30
2023-06-19T08:36:23.789Z,25.30
2023-06-19T08:37:26.227Z,25.20
2023-06-19T08:38:28.667Z,25.30
2023-06-19T08:39:31.088Z,25.30
2023-06-19T08:40:34.465Z,25.30
2023-06-19T08:41:39.990Z,25.30
2023-06-19T08:42:44.356Z,25.30
2023-06-19T08:43:47.461Z,25.30
2023-06-19T08:44:50.295Z,25.30
2023-06-19T08:46:08.657Z,25.30
2023-06-19T08:47:11.154Z,25.30
2023-06-19T08:48:15.258Z,25.30
2023-06-19T08:49:17.725Z,25.30
2023-06-19T08:50:21.343Z,25.30
2023-06-19T08:51:23.977Z,25.30
2023-06-19T08:52:26.459Z,25.30
2023-06-19T08:53:29.333Z,25.30
2023-06-19T08:54:32.162Z,25.30
2023-06-19T08:55:35.876Z,25.30
2023-06-19T08:56:39.022Z,25.30
2023-06-19T08:57:42.059Z,25.30
2023-06-19T08:58:44.870Z,25.30
2023-06-19T08:59:51.505Z,25.30
2023-06-19T09:00:54.122Z,25.40
2023-06-19T09:01:57.205Z,25.40
2023-06-19T09:03:13.437Z,25.40
2023-06-19T09:04:16.765Z,25.30
2023-06-19T09:05:20.253Z,25.40
2023-06-19T09:06:22.768Z,25.40
2023-06-19T09:07:25.416Z,25.40
2023-06-19T09:08:29.108Z,25.40
2023-06-19T09:09:34.122Z,25.40
2023-06-19T09:10:36.731Z,25.40
2023-06-19T09:11:44.235Z,25.40
2023-06-19T09:13:05.350Z,25.40
2023-06-19T09:14:07.842Z,25.40
2023-06-19T09:15:16.882Z,25.40
2023-06-19T09:16:19.722Z,25.40
2023-06-19T09:17:22.908Z,25.40
2023-06-19T09:18:29.738Z,25.40
2023-06-19T09:19:32.833Z,25.40
2023-06-19T09:20:40.096Z,25.40
2023-06-19T09:21:42.622Z,25.40
2023-06-19T09:22:45.579Z,25.40
2023-06-19T09:23:48.370Z,25.40
2023-06-19T09:24:52.999Z,25.40
2023-06-19T09:25:58.221Z,25.40
2023-06-19T09:27:14.502Z,25.40
2023-06-19T09:28:22.367Z,25.40
2023-06-19T09:29:27.392Z,25.40
2023-06-19T09:30:29.849Z,25.40
2023-06-19T09:31:35.412Z,25.40
2023-06-19T09:32:37.833Z,25.40
2023-06-19T09:33:41.376Z,25.40
2023-06-19T09:34:43.945Z,25.40
2023-06-19T09:35:46.722Z,25.40
2023-06-19T09:36:51.665Z,25.40
2023-06-19T09:37:55.581Z,25.40
2023-06-19T09:39:00.404Z,25.40
2023-06-19T09:40:11.689Z,25.40
2023-06-19T09:41:15.813Z,25.40
2023-06-19T09:42:18.852Z,25.40
2023-06-19T09:43:26.814Z,25.40
2023-06-19T09:44:36.973Z,25.40
2023-06-19T09:45:45.069Z,25.50
2023-06-19T09:46:49.792Z,25.50
2023-06-19T09:47:55.002Z,25.50
2023-06-19T09:49:02.545Z,25.50
2023-06-19T09:50:07.228Z,25.50
2023-06-19T09:51:20.609Z,25.50
2023-06-19T09:52:28.790Z,25.50
2023-06-19T09:53:40.592Z,25.60
2023-06-19T09:54:47.148Z,25.50
2023-06-19T09:55:53.430Z,25.50
2023-06-19T09:56:59.509Z,25.40
2023-06-19T09:58:03.955Z,25.40
2023-06-19T09:59:10.358Z,25.40
2023-06-19T10:00:20.685Z,25.40
2023-06-19T10:01:24.503Z,25.30
2023-06-19T10:02:28.417Z,25.30
2023-06-19T10:03:32.993Z,25.30
2023-06-19T10:04:51.053Z,25.30
2023-06-19T10:06:00.079Z,25.30
2023-06-19T10:07:02.617Z,25.30
2023-06-19T10:08:06.143Z,25.30
2023-06-19T10:09:11.015Z,25.30
2023-06-19T10:10:29.106Z,25.30
2023-06-19T10:11:49.214Z,25.20
2023-06-19T10:12:52.031Z,25.20
2023-06-19T10:13:55.084Z,25.30
2023-06-19T10:14:57.487Z,25.30
2023-06-19T10:16:00.000Z,25.20
2023-06-19T10:17:10.094Z,25.30
2023-06-19T10:18:17.316Z,25.30
2023-06-19T10:19:22.889Z,25.30
2023-06-19T10:20:32.389Z,25.30
2023-06-19T10:21:48.723Z,25.30
2023-06-19T10:23:01.443Z,25.30
2023-06-19T10:24:06.117Z,25.30
2023-06-19T10:25:08.775Z,25.30
2023-06-19T10:26:16.826Z,25.30
2023-06-19T10:27:23.459Z,25.30
2023-06-19T10:28:29.308Z,25.30
2023-06-19T10:29:43.112Z,25.30
2023-06-19T10:31:01.052Z,25.30
2023-06-19T10:32:03.828Z,25.30
2023-06-19T10:33:06.359Z,25.10
2023-06-19T10:34:09.668Z,24.90
2023-06-19T10:35:13.794Z,24.80
2023-06-19T10:36:22.854Z,24.50
2023-06-19T10:37:34.978Z,24.20
2023-06-19T10:38:37.787Z,24.00
2023-06-19T10:39:40.209Z,23.90
2023-06-19T10:40:43.618Z,23.80
2023-06-19T10:41:46.593Z,23.60
2023-06-19T10:42:49.006Z,23.50
2023-06-19T10:43:59.619Z,23.30
2023-06-19T10:45:04.951Z,23.30
2023-06-19T10:46:07.477Z,23.20
2023-06-19T10:47:10.040Z,23.10
2023-06-19T10:48:13.047Z,23.10
2023-06-19T10:49:15.504Z,23.10
2023-06-19T10:50:17.900Z,23.10
2023-06-19T10:51:20.853Z,23.00
2023-06-19T10:52:24.669Z,23.00
2023-06-19T10:53:34.053Z,23.00
2023-06-19T10:54:36.960Z,23.00
2023-06-19T10:55:39.415Z,22.90
2023-06-19T10:56:42.173Z,23.00
2023-06-19T10:57:48.380Z,23.20
2023-06-19T10:59:10.337Z,23.40
2023-06-19T11:00:23.391Z,23.70
2023-06-19T11:01:41.024Z,23.80
2023-06-19T11:02:44.984Z,24.00
2023-06-19T11:03:48.113Z,24.10
2023-06-19T11:04:54.283Z,24.20
2023-06-19T11:05:57.565Z,24.30
2023-06-19T11:07:06.266Z,24.40
2023-06-19T11:08:09.486Z,24.40
2023-06-19T11:09:13.444Z,24.50
2023-06-19T11:10:21.299Z,24.60
2023-06-19T11:11:23.926Z,24.60
2023-06-19T11:12:26.404Z,24.70
2023-06-19T11:13:29.670Z,24.70
2023-06-19T11:14:32.631Z,24.70
2023-06-19T11:15:35.773Z,24.80
2023-06-19T11:16:48.172Z,24.80
2023-06-19T11:17:51.378Z,24.90
2023-06-19T11:19:00.904Z,24.90
2023-06-19T11:20:06.376Z,24.90
2023-06-19T11:21:08.843Z,24.90
2023-06-19T11:22:12.164Z,25.00
2023-06-19T11:23:15.222Z,25.00
2023-06-19T11:24:18.604Z,25.00
2023-06-19T11:25:21.759Z,24.90
2023-06-19T11:26:26.098Z,24.70
2023-06-19T11:27:31.582Z,24.50
2023-06-19T11:28:39.635Z,24.30
2023-06-19T11:29:42.207Z,24.00
2023-06-19T11:30:45.129Z,23.70
2023-06-19T11:31:50.327Z,23.60
2023-06-19T11:32:53.469Z,23.90
2023-06-19T11:34:03.286Z,24.00
2023-06-19T11:35:12.232Z,24.20
2023-06-19T11:36:14.707Z,24.30
2023-06-19T11:37:19.401Z,24.40
2023-06-19T11:38:24.794Z,24.50
2023-06-19T11:39:30.071Z,24.60
2023-06-19T11:40:41.140Z,24.60
2023-06-19T11:41:47.460Z,24.70
2023-06-19T11:42:53.104Z,24.70
2023-06-19T11:44:01.604Z,24.70
2023-06-19T11:45:08.241Z,24.80
2023-06-19T11:46:10.883Z,24.80
2023-06-19T11:47:13.371Z,24.90
2023-06-19T11:48:22.558Z,24.90
2023-06-19T11:49:26.159Z,24.90
2023-06-19T11:50:29.731Z,24.90
2023-06-19T11:51:34.427Z,24.90
2023-06-19T11:52:37.007Z,25.00
2023-06-19T11:53:40.276Z,25.00
2023-06-19T11:54:42.898Z,25.00
2023-06-19T11:55:45.398Z,25.00
2023-06-19T11:56:49.227Z,25.00
2023-06-19T11:57:54.560Z,25.00
2023-06-19T11:58:57.604Z,25.10
2023-06-19T12:00:00.040Z,25.10
2023-06-19T12:01:03.470Z,25.10
2023-06-19T12:02:06.607Z,25.10
2023-06-19T12:03:10.755Z,25.10
2023-06-19T12:04:13.462Z,25.10
2023-06-19T12:05:16.207Z,25.10
2023-06-19T12:06:21.585Z,25.10
2023-06-19T12:07:24.831Z,25.10
2023-06-19T12:08:27.257Z,25.10
2023-06-19T12:09:30.790Z,25.20
2023-06-19T12:10:33.746Z,25.20
2023-06-19T12:11:36.198Z,25.20
2023-06-19T12:12:41.886Z,25.20
2023-06-19T12:13:44.981Z,25.20
2023-06-19T12:14:47.400Z,25.20
2023-06-19T12:15:51.088Z,25.20
2023-06-19T12:16:53.618Z,25.20
2023-06-19T12:17:59.090Z,25.20
2023-06-19T12:19:01.784Z,25.20
2023-06-19T12:20:09.188Z,25.20
2023-06-19T12:21:24.865Z,25.20
2023-06-19T12:22:35.296Z,25.20
2023-06-19T12:23:42.243Z,25.20
2023-06-19T12:24:45.130Z,25.20
2023-06-19T12:25:47.863Z,25.20
2023-06-19T12:26:51.032Z,25.20
2023-06-19T12:27:55.638Z,25.20
2023-06-19T12:28:58.394Z,25.20
2023-06-19T12:30:00.966Z,25.20
2023-06-19T12:31:04.629Z,25.20
2023-06-19T12:32:07.874Z,25.20
2023-06-19T12:33:10.488Z,25.20
2023-06-19T12:34:28.643Z,25.20
2023-06-19T12:35:33.335Z,25.20
2023-06-19T12:36:36.016Z,25.20
2023-06-19T12:37:38.973Z,25.20
2023-06-19T12:38:44.472Z,25.20
2023-06-19T12:39:48.721Z,25.20
2023-06-19T12:40:51.123Z,25.20
2023-06-19T12:41:54.152Z,25.20
2023-06-19T12:42:56.808Z,25.20
2023-06-19T12:43:59.243Z,25.20
2023-06-19T12:45:01.913Z,25.20
2023-06-19T12:46:04.485Z,25.20
2023-06-19T12:47:08.130Z,25.20
2023-06-19T12:48:12.528Z,25.20
2023-06-19T12:49:15.340Z,25.20
2023-06-19T12:50:17.940Z,25.20
2023-06-19T12:51:20.577Z,25.20
2023-06-19T12:52:23.348Z,25.20
2023-06-19T12:53:27.593Z,25.20
2023-06-19T12:54:30.382Z,25.20
2023-06-19T12:55:33.404Z,25.10
2023-06-19T12:56:35.872Z,25.20
2023-06-19T12:57:38.508Z,25.20
2023-06-19T12:58:40.983Z,25.20
2023-06-19T12:59:43.353Z,25.20
2023-06-19T13:00:45.801Z,25.20
2023-06-19T13:01:48.595Z,25.20
2023-06-19T13:02:51.312Z,25.20
2023-06-19T13:03:53.856Z,25.20
2023-06-19T13:04:56.356Z,25.20
2023-06-19T13:05:58.879Z,25.20
2023-06-19T13:07:01.310Z,25.10
2023-06-19T13:08:03.844Z,25.20
2023-06-19T13:09:07.183Z,25.20
2023-06-19T13:10:11.148Z,25.20
2023-06-19T13:11:14.434Z,25.20
2023-06-19T13:12:16.879Z,25.20
2023-06-19T13:13:19.357Z,25.20
2023-06-19T13:14:21.994Z,25.20
2023-06-19T13:15:24.957Z,25.20
2023-06-19T13:16:44.818Z,25.20
2023-06-19T13:17:48.336Z,25.20
2023-06-19T13:18:50.896Z,25.20
2023-06-19T13:19:53.392Z,25.20
2023-06-19T13:20:56.350Z,25.20
2023-06-19T13:21:59.368Z,25.20
2023-06-19T13:23:02.299Z,25.30
2023-06-19T13:24:05.092Z,25.20
2023-06-19T13:25:07.992Z,25.30
2023-06-19T13:26:10.527Z,25.30
2023-06-19T13:27:12.965Z,25.30
2023-06-19T13:28:15.501Z,25.30
2023-06-19T13:29:18.482Z,25.30
2023-06-19T13:30:21.137Z,25.40
2023-06-19T13:31:24.304Z,25.40
2023-06-19T13:32:26.809Z,25.40
2023-06-19T13:33:29.552Z,25.40
2023-06-19T13:34:32.282Z,25.40
2023-06-19T13:35:34.909Z,25.40
2023-06-19T13:36:37.613Z,25.40
2023-06-19T13:37:40.282Z,25.40
2023-06-19T13:44:48.302Z,25.50
2023-06-19T13:45:53.130Z,25.40
2023-06-19T13:46:58.510Z,25.40
2023-06-19T13:48:01.862Z,25.40
2023-06-19T13:49:04.412Z,25.40
2023-06-19T13:50:08.630Z,25.40
2023-06-19T13:51:11.817Z,25.40
2023-06-19T13:52:14.253Z,25.30
2023-06-19T13:53:16.789Z,25.40
2023-06-19T13:54:20.026Z,25.40